• Join FlightAware (Why Join?)
  • Login
  • US Flag 
10:20PM EDT


 

Airport Tracker/Info


-or-


 

Live Flight TrackerFlight Track Log ✈ EJA952 ✈ 16-Jun-2013 ✈ KMMU - KAUS

Flight Track Log - Related Links

Times and Time Zones

All times are in EDT time to prevent confusion due to time zone crossing. See the EJA952 flight status page for this flight to view local times or setup timezone preferences in your user account.

Time Position Orientation Groundspeed Altitude Reporting Facility
EDT Latitude Longitude Course Direction KTS MPH feet Rate Location/Type
02:15PM 40.7500 -74.4333 217° Southwest 182 209 1,900  Level New York TRACON
02:16PM 40.6611 -74.4314 179° South 219 252 6,100 2,580 Climbing New York Center
02:17PM 40.6564 -74.5158 266° West 149 171 9,000 2,460 Climbing New York Center
02:18PM 40.6414 -74.5917 255° West 195 224 11,100 1,980 Climbing New York Center
02:19PM 40.6211 -74.7000 256° West 265 305 13,000 1,560 Climbing New York Center
02:20PM 40.4081 -75.2586 217° Southwest  Level FlightAware Approximate
02:20PM 40.6011 -74.8028 256° West 316 364 14,300  Level New York Center
02:22PM 40.5378 -75.0639 252° West 366 421 17,400 1,560 Climbing New York Center
02:23PM 40.4692 -75.1742 231° Southwest 373 429 19,000 1,440 Climbing New York Center
02:24PM 40.4153 -75.2744 235° Southwest 386 444 20,300 1,380 Climbing New York Center
02:25PM 40.3522 -75.3928 235° Southwest 391 450 21,800 1,440 Climbing New York Center
02:26PM 40.2936 -75.5058 236° Southwest 391 450 23,300 1,440 Climbing New York Center
02:27PM 40.2328 -75.6186 235° Southwest 391 450 24,800 1,440 Climbing New York Center
02:28PM 40.1717 -75.7339 235° Southwest 391 450 26,300 1,500 Climbing New York Center
02:29PM 40.1128 -75.8464 236° Southwest 386 444 27,800 1,500 Climbing New York Center
02:30PM 40.0514 -75.9639 236° Southwest 391 450 29,300 1,440 Climbing New York Center
02:31PM 39.9897 -76.0814 236° Southwest 391 450 30,800 1,500 Climbing New York Center
02:32PM 39.9242 -76.1956 233° Southwest 391 450 32,300 1,320 Climbing New York Center
02:33PM 39.8561 -76.3147 233° Southwest 401 461 33,500 1,260 Climbing New York Center
02:35PM 39.7667 -76.4878 236° Southwest 432 497 35,300 1,620 Climbing Washington Center
02:36PM 39.6947 -76.6136 233° Southwest 442 509 37,200 1,620 Climbing Washington Center
02:37PM 39.6269 -76.7367 234° Southwest 442 509 38,600 1,320 Climbing Washington Center
02:38PM 39.5611 -76.8594 235° Southwest 431 496 40,000 660 Climbing Washington Center
02:39PM 39.4869 -76.9844 232° Southwest 431 496 40,000  Level Washington Center
02:40PM 39.3897 -77.0900 220° Southwest 444 511 40,000  Level Washington Center
02:41PM 39.2861 -77.1978 219° Southwest 465 535 40,000  Level Washington Center
02:42PM 39.1806 -77.3081 219° Southwest 479 551 40,000  Level Washington Center
02:43PM 39.0789 -77.4153 219° Southwest 484 557 40,000  Level Washington Center
02:44PM 38.9539 -77.5456 219° Southwest 478 550 40,000  Level Washington Center
02:45PM 38.8583 -77.6417 218° Southwest 489 563 40,000  Level Washington Center
02:46PM 38.7500 -77.7531 219° Southwest 495 570 40,000  Level Washington Center
02:47PM 38.6417 -77.8694 220° Southwest 502 578 40,000  Level Washington Center
02:48PM 38.5642 -77.9947 232° Southwest 489 563 40,000  Level Washington Center
02:49PM 38.4864 -78.1300 234° Southwest 489 563 40,000  Level Washington Center
02:50PM 38.4042 -78.2678 233° Southwest 489 563 40,000  Level Washington Center
02:51PM 38.3258 -78.4025 233° Southwest 484 557 40,000  Level Washington Center
02:52PM 38.2369 -78.5497 232° Southwest 484 557 40,000  Level Washington Center
02:53PM 38.1778 -78.6583 235° Southwest 484 557 40,000  Level Washington Center
02:54PM 38.0819 -78.8181 233° Southwest 484 557 40,000  Level Washington Center
02:55PM 37.9989 -78.9517 232° Southwest 484 557 40,000  Level Washington Center
02:56PM 37.9181 -79.0875 233° Southwest 490 564 40,000  Level Washington Center
02:57PM 37.8539 -79.2108 237° Southwest 490 564 40,000  Level Washington Center
02:58PM 37.7828 -79.3544 238° Southwest 484 557 40,000  Level Washington Center
02:59PM 37.7094 -79.4953 237° Southwest 484 557 40,000  Level Washington Center
03:00PM 37.6311 -79.6511 238° Southwest 484 557 40,000  Level Washington Center
03:01PM 37.5706 -79.7764 239° Southwest 483 556 40,000  Level Washington Center
03:03PM 37.4006 -80.1047 237° Southwest 490 564 40,000  Level Atlanta Center
03:04PM 37.3278 -80.2442 237° Southwest 485 558 40,000  Level Atlanta Center
03:05PM 37.2569 -80.3806 237° Southwest 480 552 40,000  Level Atlanta Center
03:06PM 37.1858 -80.5167 237° Southwest 475 547 40,000  Level Atlanta Center
03:07PM 37.1228 -80.6419 238° Southwest 475 547 40,000  Level Atlanta Center
03:08PM 37.0578 -80.7850 240° Southwest 475 547 40,000  Level Atlanta Center
03:09PM 37.0033 -80.9331 245° Southwest 468 539 40,000  Level Atlanta Center
03:10PM 36.9469 -81.0989 247° West 473 544 40,000  Level Atlanta Center
03:11PM 36.8939 -81.2461 246° West 473 544 40,000  Level Atlanta Center
03:12PM 36.8411 -81.3931 246° West 468 539 40,000  Level Atlanta Center
03:13PM 36.7936 -81.5269 246° West 468 539 40,000  Level Atlanta Center
03:14PM 36.7425 -81.6761 247° West 468 539 40,000  Level Atlanta Center
03:15PM 36.6889 -81.8253 246° West 468 539 40,000  Level Atlanta Center
03:16PM 36.6331 -81.9717 245° Southwest 460 529 40,000  Level Atlanta Center
03:17PM 36.5772 -82.1206 245° Southwest 465 535 40,000  Level Atlanta Center
03:18PM 36.5189 -82.2667 244° Southwest 465 535 40,000  Level Atlanta Center
03:19PM 36.4458 -82.4050 237° Southwest 483 556 40,000  Level Atlanta Center
03:20PM 36.3622 -82.5511 235° Southwest 483 556 40,000  Level Atlanta Center
03:21PM 36.2844 -82.6864 235° Southwest 483 556 40,000  Level Atlanta Center
03:22PM 36.2044 -82.8164 233° Southwest 478 550 40,000  Level Atlanta Center
03:23PM 36.1286 -82.9514 235° Southwest 483 556 40,000  Level Atlanta Center
03:24PM 36.0503 -83.0808 233° Southwest 483 556 40,000  Level Atlanta Center
03:25PM 35.9719 -83.2153 234° Southwest 483 556 40,000  Level Atlanta Center
03:26PM 35.8958 -83.3467 234° Southwest 478 550 40,000  Level Atlanta Center
03:27PM 35.8192 -83.4753 234° Southwest 478 550 40,000  Level Atlanta Center
03:28PM 35.7383 -83.6089 233° Southwest 484 557 40,000  Level Atlanta Center
03:29PM 35.6594 -83.7397 233° Southwest 484 557 40,000  Level Atlanta Center
03:30PM 35.5783 -83.8728 233° Southwest 484 557 40,000  Level Atlanta Center
03:31PM 35.5014 -84.0006 234° Southwest 484 557 40,000  Level Atlanta Center
03:32PM 35.4219 -84.1331 234° Southwest 484 557 40,000  Level Atlanta Center
03:33PM 35.3406 -84.2628 232° Southwest 484 557 40,000 60 Level Atlanta Center
03:35PM 35.1833 -84.5242 234° Southwest 484 557 40,200 360 Climbing Atlanta Center
03:36PM 35.1136 -84.6633 239° Southwest 479 551 41,200 900 Climbing Atlanta Center
03:37PM 35.0544 -84.8050 243° Southwest 479 551 42,100 900 Climbing Atlanta Center
03:38PM 34.9931 -84.9439 242° Southwest 472 543 43,000 420 Climbing Atlanta Center
03:39PM 34.9336 -85.0853 243° Southwest 467 537 43,000  Level Atlanta Center
03:40PM 34.8736 -85.2339 244° Southwest 472 543 43,000  Level Atlanta Center
03:41PM 34.8222 -85.3619 244° Southwest 472 543 43,000  Level Atlanta Center
03:42PM 34.7622 -85.5078 243° Southwest 472 543 43,000  Level Atlanta Center
03:43PM 34.7019 -85.6533 243° Southwest 477 549 43,000  Level Atlanta Center
03:44PM 34.6394 -85.7986 242° Southwest 489 563 43,000  Level Atlanta Center
03:45PM 34.5706 -85.9508 241° Southwest 480 552 43,000  Level Atlanta Center
03:46PM 34.5033 -86.0956 241° Southwest 480 552 43,000  Level Atlanta Center
03:47PM 34.4361 -86.2375 240° Southwest 480 552 43,000  Level Atlanta Center
03:48PM 34.3689 -86.3792 240° Southwest 487 560 43,000  Level Atlanta Center
03:49PM 34.3036 -86.5208 241° Southwest 482 555 43,000  Level Atlanta Center
03:50PM 34.2358 -86.6619 240° Southwest 482 555 43,000  Level Atlanta Center
03:51PM 34.1681 -86.8056 240° Southwest 482 555 43,000  Level Atlanta Center
03:52PM 34.1000 -86.9489 240° Southwest 482 555 43,000  Level Atlanta Center
03:53PM 34.0361 -87.0894 241° Southwest 482 555 43,000  Level Atlanta Center
03:53PM 34.0147 -87.1597 250° West 487 560 43,000  Level Memphis Center
03:54PM 33.9658 -87.2967 247° West 476 548 43,000  Level Memphis Center
03:55PM 33.9172 -87.4486 249° West 477 549 43,000  Level Memphis Center
03:56PM 33.8725 -87.5803 248° West 477 549 43,000  Level Memphis Center
03:57PM 33.8194 -87.7319 247° West 482 555 43,000  Level Memphis Center
03:58PM 33.7722 -87.8833 249° West 493 567 43,000  Level Memphis Center
03:59PM 33.7167 -88.0322 246° West 493 567 43,000  Level Memphis Center
04:00PM 33.6442 -88.1714 238° Southwest 493 567 43,000  Level Memphis Center
04:01PM 33.5714 -88.3103 238° Southwest 493 567 43,000  Level Memphis Center
04:02PM 33.4944 -88.4617 239° Southwest 498 573 43,000  Level Memphis Center
04:03PM 33.4214 -88.6025 238° Southwest 498 573 43,000  Level Memphis Center
04:04PM 33.3481 -88.7383 237° Southwest 503 579 43,000  Level Memphis Center
04:05PM 33.2619 -88.8692 232° Southwest 503 579 43,000  Level Memphis Center
04:06PM 33.1736 -88.9922 229° Southwest 503 579 43,000  Level Memphis Center
04:07PM 33.0811 -89.1150 228° Southwest 498 573 43,000  Level Memphis Center
04:08PM 32.9883 -89.2378 228° Southwest 503 579 43,000  Level Memphis Center
04:09PM 32.8956 -89.3603 228° Southwest 503 579 43,000  Level Memphis Center
04:10PM 32.8003 -89.4847 228° Southwest 503 579 43,000  Level Memphis Center
04:11PM 32.7072 -89.6117 229° Southwest 503 579 43,000  Level Memphis Center
04:12PM 32.6139 -89.7358 228° Southwest 503 579 43,000  Level Memphis Center
04:13PM 32.5353 -89.8744 236° Southwest 509 586 43,000  Level Memphis Center
04:14PM 32.4628 -90.0125 238° Southwest 509 586 43,000  Level Memphis Center
04:15PM 32.3878 -90.1506 237° Southwest 509 586 43,000  Level Memphis Center
04:16PM 32.3108 -90.2886 237° Southwest 503 579 43,000  Level Memphis Center
04:17PM 32.2356 -90.4236 237° Southwest 503 579 43,000  Level Memphis Center
04:20PM 32.0658 -90.7597 239° Southwest 503 579 43,000  Level Houston Center
04:21PM 32.0283 -90.9444 257° West 491 565 43,000  Level Houston Center
04:22PM 31.9947 -91.1019 256° West 494 568 43,000  Level Houston Center
04:23PM 31.9578 -91.2572 254° West 493 567 43,000  Level Houston Center
04:24PM 31.9239 -91.4144 256° West 495 570 43,000  Level Houston Center
04:25PM 31.8917 -91.5711 256° West 495 570 43,000  Level Houston Center
04:26PM 31.8394 -91.7192 247° West 501 577 43,000  Level Houston Center
04:27PM 31.7631 -91.8894 242° Southwest 493 567 43,000  Level Houston Center
04:28PM 31.7008 -92.0336 243° Southwest 496 571 43,000  Level Houston Center
04:29PM 31.6403 -92.1639 241° Southwest 498 573 43,000  Level Houston Center
04:30PM 31.5639 -92.3364 243° Southwest 499 574 43,000  Level Houston Center
04:31PM 31.5039 -92.4800 244° Southwest 495 570 43,000  Level Houston Center
04:32PM 31.4392 -92.6239 242° Southwest 507 583 43,000  Level Houston Center
04:33PM 31.3758 -92.7675 243° Southwest 501 577 43,000  Level Houston Center
04:34PM 31.3117 -92.9131 243° Southwest 497 572 43,000  Level Houston Center
04:36PM 31.2467 -93.0536 242° Southwest 496 571 43,000  Level Houston Center
04:37PM 31.1714 -93.2208 242° Southwest 494 568 43,000  Level Houston Center
04:38PM 31.1081 -93.3625 242° Southwest 495 570 43,000  Level Houston Center
04:39PM 31.0433 -93.5039 242° Southwest 495 570 43,000  Level Houston Center
04:40PM 30.9792 -93.6444 242° Southwest 496 571 43,000  Level Houston Center
04:41PM 30.9144 -93.7872 242° Southwest 501 577 43,000  Level Houston Center
04:42PM 30.8353 -93.9578 242° Southwest 502 578 43,000  Level Houston Center
04:43PM 30.7692 -94.1003 242° Southwest 503 579 43,000  Level Houston Center
04:44PM 30.7033 -94.2422 242° Southwest 504 580 43,000  Level Houston Center
04:45PM 30.6386 -94.3864 242° Southwest 506 582 43,000  Level Houston Center
04:46PM 30.5567 -94.5569 241° Southwest 503 579 43,000  Level Houston Center
04:47PM 30.4897 -94.6983 241° Southwest 499 574 43,000  Level Houston Center
04:48PM 30.4306 -94.8294 242° Southwest 506 582 43,000 -120 Level Houston Center
04:49PM 30.3661 -94.9728 243° Southwest 505 581 42,800 -1,140 Descending Houston Center
04:50PM 30.3156 -95.1514 252° West 492 566 40,700 -2,100 Descending Houston Center
04:51PM 30.2758 -95.2911 252° West 465 535 38,500 -2,280 Descending Houston Center
04:52PM 30.2392 -95.4292 253° West 454 522 36,000 -2,460 Descending Houston Center
04:53PM 30.1967 -95.5808 252° West 491 565 33,500 -2,460 Descending Houston Center
04:54PM 30.1411 -95.7267 246° West 502 578 31,000 -1,800 Descending Houston Center
04:55PM 30.0281 -95.8717 228° Southwest 510 587 29,900 -1,260 Descending Houston Center
04:56PM 29.9333 -95.9900 227° Southwest 507 583 28,400 -1,620 Descending Houston Center
04:57PM 29.8550 -96.1300 237° Southwest 507 583 26,600 -1,740 Descending Houston Center
04:58PM 29.8600 -96.2831 272° West 498 573 24,900 -2,400 Descending Houston Center
04:59PM 29.9050 -96.4211 291° West 465 535 21,700 -2,880 Descending Houston Center
05:00PM 29.9447 -96.5467 290° West 426 490 19,000 -3,120 Descending Houston Center
05:01PM 29.9950 -96.7003 291° West 431 496 15,300 -3,180 Descending Houston Center
05:02PM 30.0350 -96.8267 290° West 424 488 12,500 -1,680 Descending Houston Center
05:03PM 30.0711 -96.9442 290° West 397 457 11,900 -540 Descending Houston Center
05:04PM 30.1044 -97.0567 289° West 385 443 11,400 -1,260 Descending Houston Center
05:06PM 30.1403 -97.1764 289° West 342 394 9,300 -2,280 Descending Houston Center
05:07PM 30.1653 -97.2581 290° West 281 323 6,800 -1,620 Descending Houston Center
05:08PM 30.1933 -97.3394 292° West 272 313 6,000 -1,020 Descending Houston Center
05:09PM 30.2283 -97.4169 298° West 270 311 4,800 -1,020 Descending Houston Center
05:10PM 30.2644 -97.4961 298° West 273 314 4,000 -420 Descending Houston Center
05:11PM 30.2928 -97.5561 299° West 221 254 4,000 -420 Level Houston Center
05:12PM 30.3222 -97.6167 299° West 212 244 3,200 -1,020 Descending Houston Center
05:13PM 30.2844 -97.6611 225° Southwest 201 231 1,900 -960 Descending Houston Center
05:14PM 30.2406 -97.6578 176° South 170 196 1,300 -480 Descending Houston Center
05:15PM 30.2086 -97.6550 176° South 159 183 1,000 -300 Descending Houston Center